LTAF/ADA METAR and TAF weather

Enter ICAO airport designator
Station Type Date Time Source
LTAF METAR 2018/12/10 01:20 UTC NOAA

LTAF 100120Z 06005KT 9999 SCT035 BKN100 12/11 Q1016 NOSIG


Station Type Date Time Source
LTAF Decoded METAR 2018/12/10 01:20 UTC NOAA

Adana / Sakirpasa, Turkey (LTAF) 36-59N 035-18E 20M
Dec 09, 2018 - 08:20 PM EST / 2018.12.10 0120 UTC
Wind: from the ENE (060 degrees) at 6 MPH (5 KT):0
Visibility: greater than 7 mile(s):0
Sky conditions: mostly cloudy
Temperature: 53 F (12 C)
Dew Point: 51 F (11 C)
Relative Humidity: 93%
Pressure (altimeter): 30.00 in. Hg (1016 hPa)
ob: LTAF 100120Z 06005KT 9999 SCT035 BKN100 12/11 Q1016 NOSIG
cycle: 1

Station Type Date Time Source
LTAF TAF 2018/12/09 18:01 UTC NOAA

TAF LTAF 091640Z 0918/1018 03008KT 4000 -SHRA BR SCT035 BKN100
BECMG 0919/0921 9999 NSW PROB40
TEMPO 1002/1006 -TSRA SCT020CB BKN030
TEMPO 1006/1010 -TSRA SCT020CB BKN030
TEMPO 1010/1014 -TSRA SCT020CB BKN030


Example: see airport list